Time;durP1;ratioP1;P1;durP2;ratioP2;P2;SDS_P1;SDS_P2;PMS_P1;PMS_P2;Temp;Humidity;BMP_temperature;BMP_pressure;BME280_temperature;BME280_humidity;BME280_pressure;Samples;Min_cycle;Max_cycle;Signal;HPM_P1;HPM_P2
2023/07/06 00:00:52;;;;;;;41.58;37.92;;;;;;;19.87;100.00;100763.44;6152861;23;20375;-84
2023/07/06 00:03:20;;;;;;;42.90;39.40;;;;;;;20.51;100.00;100771.03;6152212;23;20037;-84
2023/07/06 00:05:48;;;;;;;45.88;42.70;;;;;;;20.54;100.00;100767.81;6152130;23;20378;-84
2023/07/06 00:08:16;;;;;;;42.50;38.72;;;;;;;19.51;100.00;100755.22;6153037;23;20031;-84
2023/07/06 00:10:44;;;;;;;43.85;40.30;;;;;;;20.37;100.00;100775.38;6154263;23;20092;-84
2023/07/06 00:13:11;;;;;;;43.75;40.45;;;;;;;20.42;100.00;100769.94;6154012;23;20481;-83
2023/07/06 00:15:42;;;;;;;46.55;42.95;;;;;;;20.45;100.00;100768.59;6154141;23;20080;-83
2023/07/06 00:18:10;;;;;;;44.72;41.03;;;;;;;20.10;100.00;100778.31;6154171;23;20021;-85
2023/07/06 00:20:38;;;;;;;42.83;39.22;;;;;;;20.34;100.00;100767.81;6154182;23;20064;-84
2023/07/06 00:23:05;;;;;;;41.83;38.22;;;;;;;20.34;100.00;100768.63;6153947;23;20459;-84
2023/07/06 00:25:33;;;;;;;42.72;39.45;;;;;;;20.11;100.00;100769.94;6154207;23;20021;-84
2023/07/06 00:28:11;;;;;;;42.53;38.72;;;;;;;19.96;100.00;100771.81;6154529;23;20025;-84
2023/07/06 00:30:53;;;;;;;43.25;39.75;;;;;;;20.20;100.00;100764.84;6154411;23;20372;-84
2023/07/06 00:33:24;;;;;;;42.95;39.35;;;;;;;19.59;100.00;100773.56;6154028;23;20028;-84
2023/07/06 00:35:57;;;;;;;45.45;41.58;;;;;;;20.03;100.00;100773.19;6154200;23;20467;-84
2023/07/06 00:38:27;;;;;;;47.75;43.70;;;;;;;19.93;100.00;100777.75;6154332;23;20025;-84
2023/07/06 00:40:57;;;;;;;54.58;49.97;;;;;;;19.62;100.00;100772.25;6154150;23;20037;-84
2023/07/06 00:43:27;;;;;;;51.35;46.65;;;;;;;19.98;100.00;100778.56;6153767;23;20021;-84
2023/07/06 00:45:59;;;;;;;49.08;44.78;;;;;;;19.88;100.00;100765.09;6154093;23;20028;-84
2023/07/06 00:48:32;;;;;;;49.97;45.63;;;;;;;19.23;100.00;100778.81;6153819;23;20022;-84
2023/07/06 00:51:02;;;;;;;50.92;46.40;;;;;;;19.60;100.00;100777.06;6153286;23;20017;-82
2023/07/06 00:53:34;;;;;;;47.25;42.85;;;;;;;19.37;100.00;100779.16;6154010;23;20096;-84
2023/07/06 00:56:03;;;;;;;48.20;43.60;;;;;;;19.39;100.00;100781.56;6154284;23;20097;-84
2023/07/06 00:58:40;;;;;;;43.50;39.58;;;;;;;18.87;100.00;100785.88;6153883;23;20036;-84
2023/07/06 01:01:12;;;;;;;52.75;48.17;;;;;;;19.52;100.00;100791.88;6154093;23;20025;-84
2023/07/06 01:03:46;;;;;;;45.58;41.33;;;;;;;19.09;100.00;100809.16;6153733;23;20025;-84
2023/07/06 01:06:47;;;;;;;50.50;46.05;;;;;;;19.66;100.00;100811.88;6153917;23;20519;-84
2023/07/06 01:09:15;;;;;;;51.58;47.28;;;;;;;19.66;100.00;100809.19;6073534;23;20104;-84
2023/07/06 01:11:42;;;;;;;51.33;47.22;;;;;;;20.04;100.00;100822.53;6154368;23;20083;-85
2023/07/06 01:14:12;;;;;;;43.78;40.58;;;;;;;20.34;100.00;100827.16;6153809;23;20028;-85
2023/07/06 01:16:54;;;;;;;42.90;40.10;;;;;;;20.28;100.00;100820.94;6154035;23;20021;-85
2023/07/06 01:20:04;;;;;;;48.33;45.63;;;;;;;20.75;100.00;100808.28;6153260;23;20017;-84
2023/07/06 01:22:59;;;;;;;41.70;39.10;;;;;;;20.76;100.00;100821.53;6118018;23;20076;-85
2023/07/06 01:25:39;;;;;;;41.63;38.97;;;;;;;20.67;100.00;100825.84;6153348;23;20375;-85
2023/07/06 01:28:19;;;;;;;41.22;38.72;;;;;;;20.88;100.00;100809.63;6154359;23;20024;-85
2023/07/06 01:31:05;;;;;;;42.17;39.70;;;;;;;20.85;100.00;100826.34;6153948;23;20014;-84
2023/07/06 01:33:41;;;;;;;37.70;35.20;;;;;;;20.93;100.00;100821.22;6153556;23;20022;-85
2023/07/06 01:36:15;;;;;;;40.63;38.25;;;;;;;20.96;100.00;100815.28;6153339;23;20084;-85
2023/07/06 01:38:42;;;;;;;37.45;35.10;;;;;;;20.91;100.00;100828.81;6153942;23;20022;-85
2023/07/06 01:41:10;;;;;;;44.85;41.95;;;;;;;21.71;100.00;100814.53;6153631;23;20017;-84
2023/07/06 01:43:38;;;;;;;49.70;46.90;;;;;;;21.05;100.00;100821.72;6153840;23;20029;-85
2023/07/06 01:46:05;;;;;;;44.97;42.35;;;;;;;20.89;100.00;100830.16;6153885;23;20026;-84
2023/07/06 01:48:37;;;;;;;46.53;43.92;;;;;;;21.05;100.00;100824.44;6153626;23;20021;-85
2023/07/06 01:51:17;;;;;;;47.47;44.88;;;;;;;21.00;100.00;100807.47;6153576;23;20026;-84
2023/07/06 01:53:54;;;;;;;41.13;38.83;;;;;;;20.78;100.00;100818.53;6153497;23;20030;-84
2023/07/06 01:56:29;;;;;;;38.13;35.92;;;;;;;21.40;100.00;100811.97;6153454;23;20021;-84
2023/07/06 01:59:03;;;;;;;41.53;39.33;;;;;;;21.11;100.00;100808.22;6153504;23;20022;-85
2023/07/06 02:01:39;;;;;;;43.03;40.33;;;;;;;20.78;100.00;100810.44;6153114;23;20017;-83
2023/07/06 02:04:08;;;;;;;52.70;49.60;;;;;;;21.03;100.00;100820.41;6153155;23;20017;-83
2023/07/06 02:06:37;;;;;;;54.20;51.10;;;;;;;20.81;100.00;100818.78;6152833;23;20017;-82
2023/07/06 02:09:06;;;;;;;53.97;50.88;;;;;;;20.96;100.00;100817.97;6152892;23;20022;-82
2023/07/06 02:11:35;;;;;;;53.33;50.03;;;;;;;20.83;100.00;100821.25;6154099;23;20022;-83
2023/07/06 02:14:02;;;;;;;54.55;51.35;;;;;;;20.75;100.00;100824.47;6153461;23;20541;-82
2023/07/06 02:16:30;;;;;;;45.45;42.63;;;;;;;20.86;100.00;100825.28;6153046;23;20020;-82
2023/07/06 02:19:00;;;;;;;45.30;42.50;;;;;;;20.74;100.00;100812.06;6152896;23;20117;-82
2023/07/06 02:21:38;;;;;;;46.30;43.20;;;;;;;20.37;100.00;100815.81;6152989;23;20052;-84
2023/07/06 02:24:09;;;;;;;51.83;48.15;;;;;;;20.35;100.00;100816.06;6153331;23;20037;-82
2023/07/06 02:26:36;;;;;;;52.95;49.55;;;;;;;20.26;100.00;100819.59;6152975;23;20040;-83
2023/07/06 02:29:05;;;;;;;44.15;41.03;;;;;;;20.46;100.00;100814.22;6153039;23;20093;-84
2023/07/06 02:31:34;;;;;;;47.20;43.95;;;;;;;20.51;100.00;100816.09;6152799;23;20021;-82
2023/07/06 02:34:01;;;;;;;42.58;39.40;;;;;;;20.44;100.00;100813.66;6152809;23;20096;-84
2023/07/06 02:36:28;;;;;;;58.72;54.42;;;;;;;19.93;100.00;100818.97;6152418;23;20028;-82
2023/07/06 02:38:58;;;;;;;53.80;50.10;;;;;;;20.01;100.00;100815.78;6152509;23;20022;-82
2023/07/06 02:41:25;;;;;;;51.50;47.90;;;;;;;20.32;100.00;100813.91;6152873;23;20029;-85
2023/07/06 02:43:53;;;;;;;43.90;40.47;;;;;;;20.17;100.00;100810.41;6153140;23;20344;-82
2023/07/06 02:46:20;;;;;;;38.90;35.75;;;;;;;20.24;100.00;100810.94;6152861;23;20022;-84
2023/07/06 02:48:59;;;;;;;43.00;39.70;;;;;;;20.42;100.00;100806.91;6152871;23;20017;-84
2023/07/06 02:51:29;;;;;;;41.72;38.33;;;;;;;19.93;100.00;100812.78;6152782;23;20017;-84
2023/07/06 02:54:01;;;;;;;42.50;39.30;;;;;;;20.24;100.00;100809.09;6153187;23;20029;-84
2023/07/06 02:56:28;;;;;;;;;;;;;;;19.94;100.00;100807.13;6153882;23;20025;-84
2023/07/06 02:58:57;;;;;;;40.20;37.20;;;;;;;19.76;100.00;100800.34;6153136;23;19996;-84
2023/07/06 03:01:29;;;;;;;41.25;38.15;;;;;;;19.70;100.00;100817.56;6153092;23;20018;-82
2023/07/06 03:03:55;;;;;;;39.97;36.88;;;;;;;19.99;100.00;100811.72;6152729;23;20374;-84
2023/07/06 03:06:24;;;;;;;39.38;36.28;;;;;;;19.72;100.00;100810.00;6152695;23;20076;-84
2023/07/06 03:08:51;;;;;;;41.00;37.80;;;;;;;19.70;100.00;100812.19;6153278;23;20017;-84
2023/07/06 03:11:20;;;;;;;60.28;55.95;;;;;;;20.06;100.00;100813.09;6153288;23;20056;-84
2023/07/06 03:13:47;;;;;;;52.88;49.17;;;;;;;20.48;100.00;100811.22;6152777;23;20537;-84
2023/07/06 03:16:14;;;;;;;45.63;42.03;;;;;;;20.56;100.00;100818.81;6152650;23;20434;-84
2023/07/06 03:18:43;;;;;;;61.17;56.67;;;;;;;20.27;100.00;100819.31;6152697;23;20456;-85
2023/07/06 03:21:11;;;;;;;47.63;43.95;;;;;;;20.49;100.00;100813.66;6152445;23;20050;-83
2023/07/06 03:23:38;;;;;;;58.75;54.47;;;;;;;20.36;100.00;100804.22;6152231;23;20017;-83
2023/07/06 03:26:07;;;;;;;50.90;46.90;;;;;;;20.47;100.00;100815.00;6152536;23;20021;-82
2023/07/06 03:28:40;;;;;;;49.55;45.75;;;;;;;20.65;100.00;100821.78;6152440;23;20650;-82
2023/07/06 03:31:09;;;;;;;47.90;44.42;;;;;;;20.74;100.00;100826.38;6152037;23;20459;-83
2023/07/06 03:33:35;;;;;;;54.72;50.40;;;;;;;20.64;100.00;100823.69;6152749;23;20035;-82
2023/07/06 03:36:03;;;;;;;54.40;50.35;;;;;;;20.70;100.00;100830.69;6152275;23;20044;-83
2023/07/06 03:38:31;;;;;;;51.42;47.30;;;;;;;20.49;100.00;100829.84;6152454;23;20026;-83
2023/07/06 03:41:03;;;;;;;56.92;52.90;;;;;;;20.81;100.00;100837.69;6152114;23;20101;-83
2023/07/06 03:43:31;;;;;;;41.33;38.08;;;;;;;21.02;100.00;100832.28;6152316;23;20021;-85
2023/07/06 03:46:03;;;;;;;41.40;37.90;;;;;;;20.73;100.00;100829.34;6152235;23;20060;-84
2023/07/06 03:48:30;;;;;;;40.50;37.10;;;;;;;20.87;100.00;100835.81;6152557;23;20541;-85
2023/07/06 03:51:04;;;;;;;42.03;38.50;;;;;;;20.98;100.00;100829.31;6152074;23;20017;-84
2023/07/06 03:53:31;;;;;;;44.25;40.35;;;;;;;20.64;100.00;100826.38;6152660;23;20104;-85
2023/07/06 03:55:59;;;;;;;44.17;40.67;;;;;;;20.89;100.00;100833.66;6152236;23;20021;-84
2023/07/06 03:58:25;;;;;;;45.20;41.33;;;;;;;20.99;100.00;100830.13;6152436;23;20026;-85
2023/07/06 04:01:00;;;;;;;45.97;42.03;;;;;;;21.01;100.00;100828.78;6152741;23;20092;-86
2023/07/06 04:03:27;;;;;;;45.75;41.78;;;;;;;21.15;100.00;100839.00;6152354;23;20021;-84
2023/07/06 04:05:55;;;;;;;47.90;44.25;;;;;;;21.20;100.00;100839.00;6153010;23;20024;-85
2023/07/06 04:08:23;;;;;;;42.80;38.95;;;;;;;20.97;100.00;100833.09;6152487;23;20018;-85
2023/07/06 04:10:50;;;;;;;47.30;43.40;;;;;;;20.86;100.00;100838.78;6152528;23;20086;-83
2023/07/06 04:13:19;;;;;;;42.35;39.33;;;;;;;21.31;100.00;100832.50;6152798;23;20471;-85
2023/07/06 04:15:49;;;;;;;44.20;40.50;;;;;;;21.22;100.00;100832.25;6152211;23;20030;-83
2023/07/06 04:18:23;;;;;;;40.78;37.65;;;;;;;21.31;100.00;100837.09;6152016;23;20049;-83
2023/07/06 04:20:52;;;;;;;45.38;41.88;;;;;;;20.91;100.00;100833.38;6151809;23;20018;-83
2023/07/06 04:23:19;;;;;;;44.63;41.42;;;;;;;21.23;100.00;100836.53;6152211;23;20101;-83
2023/07/06 04:25:46;;;;;;;53.63;48.13;;;;;;;21.19;100.00;100846.28;6105787;23;20033;-85
2023/07/06 04:28:16;;;;;;;44.47;41.30;;;;;;;21.56;100.00;100838.91;6153338;23;20028;-83
2023/07/06 04:30:45;;;;;;;36.72;33.92;;;;;;;21.57;100.00;100835.13;6152868;23;20029;-84
2023/07/06 04:33:16;;;;;;;37.28;34.70;;;;;;;21.55;100.00;100831.91;6152260;23;20020;-85
2023/07/06 04:35:45;;;;;;;35.38;32.78;;;;;;;21.77;100.00;100834.25;6152894;23;20022;-85
2023/07/06 04:38:12;;;;;;;35.70;32.72;;;;;;;21.84;100.00;100832.84;6152221;23;20022;-86
2023/07/06 04:40:41;;;;;;;35.40;32.83;;;;;;;21.60;100.00;100829.97;6151605;23;20022;-85
2023/07/06 04:43:09;;;;;;;34.40;31.60;;;;;;;21.78;100.00;100831.25;6152053;23;20403;-85
2023/07/06 04:45:37;;;;;;;34.85;32.38;;;;;;;21.98;100.00;100816.00;6151604;23;20026;-83
2023/07/06 04:48:05;;;;;;;30.85;28.63;;;;;;;21.98;100.00;100816.81;6152124;23;20423;-84
2023/07/06 04:50:32;;;;;;;32.50;30.17;;;;;;;22.03;100.00;100824.91;6151747;23;20021;-84
2023/07/06 04:53:02;;;;;;;28.83;26.63;;;;;;;22.37;100.00;100827.69;6152434;23;20089;-84
2023/07/06 04:55:31;;;;;;;28.45;26.23;;;;;;;22.27;100.00;100835.03;6153815;23;20485;-85
2023/07/06 04:58:00;;;;;;;29.27;26.83;;;;;;;21.97;100.00;100828.72;6153737;23;20032;-84
2023/07/06 05:00:31;;;;;;;28.50;26.05;;;;;;;22.39;100.00;100828.22;6154094;23;20021;-85
2023/07/06 05:03:00;;;;;;;26.00;23.88;;;;;;;22.34;100.00;100832.84;6153686;23;20024;-83
2023/07/06 05:05:30;;;;;;;24.45;22.65;;;;;;;22.80;100.00;100829.75;6151923;23;20615;-83
2023/07/06 05:07:57;;;;;;;27.20;25.40;;;;;;;23.13;100.00;100822.69;6153481;23;20045;-83
2023/07/06 05:10:27;;;;;;;25.00;23.35;;;;;;;22.83;100.00;100818.34;6153814;23;20033;-83
2023/07/06 05:12:55;;;;;;;26.00;24.30;;;;;;;22.99;100.00;100822.56;6153160;23;20022;-83
2023/07/06 05:15:22;;;;;;;26.13;24.23;;;;;;;23.01;100.00;100819.56;6153123;23;20125;-84
2023/07/06 05:17:49;;;;;;;34.22;31.75;;;;;;;23.07;100.00;100819.22;6152965;23;20021;-83
2023/07/06 05:20:18;;;;;;;25.90;23.80;;;;;;;23.26;100.00;100821.19;6152762;23;20368;-83
2023/07/06 05:22:49;;;;;;;25.63;23.85;;;;;;;22.98;100.00;100820.94;6152468;23;20031;-84
2023/07/06 05:25:17;;;;;;;26.17;24.25;;;;;;;23.22;100.00;100820.97;6151889;23;20029;-84
2023/07/06 05:27:46;;;;;;;26.23;24.15;;;;;;;23.55;100.00;100813.00;6150557;23;20076;-83
2023/07/06 05:30:13;;;;;;;27.92;25.75;;;;;;;22.97;100.00;100822.06;6151345;23;20035;-83
2023/07/06 05:32:40;;;;;;;25.85;23.95;;;;;;;23.25;100.00;100817.69;6151402;23;20018;-83
2023/07/06 05:35:07;;;;;;;29.55;27.25;;;;;;;23.17;100.00;100817.50;6151082;23;20052;-84
2023/07/06 05:37:35;;;;;;;27.70;25.52;;;;;;;22.82;100.00;100822.97;6151463;23;20679;-83
2023/07/06 05:40:04;;;;;;;26.88;24.52;;;;;;;23.17;100.00;100820.22;6151895;23;20029;-84
2023/07/06 05:42:31;;;;;;;28.23;25.92;;;;;;;23.49;100.00;100819.56;6152115;23;20018;-83
2023/07/06 05:45:02;;;;;;;28.63;26.63;;;;;;;23.26;100.00;100822.00;6153196;23;20103;-84
2023/07/06 05:47:29;;;;;;;28.63;26.40;;;;;;;23.09;100.00;100827.88;6153239;23;20092;-84
2023/07/06 05:49:56;;;;;;;25.88;23.88;;;;;;;23.62;100.00;100813.44;6153133;23;20463;-83
2023/07/06 05:52:23;;;;;;;25.88;24.02;;;;;;;23.71;100.00;100829.91;6153008;23;20022;-84
2023/07/06 05:54:58;;;;;;;25.33;23.63;;;;;;;23.75;100.00;100823.63;6152895;23;20017;-83
2023/07/06 05:57:26;;;;;;;26.30;24.70;;;;;;;23.71;100.00;100825.28;6152949;23;20021;-83
2023/07/06 05:59:53;;;;;;;26.95;25.17;;;;;;;23.37;100.00;100838.16;6152393;23;20064;-83
2023/07/06 06:02:22;;;;;;;27.25;25.15;;;;;;;23.72;100.00;100826.91;6153111;23;20029;-82
2023/07/06 06:04:51;;;;;;;27.50;25.60;;;;;;;23.93;100.00;100823.91;6152718;23;20024;-83
2023/07/06 06:07:19;;;;;;;27.27;25.30;;;;;;;23.88;100.00;100829.41;6152548;23;20037;-82
2023/07/06 06:09:47;;;;;;;28.17;26.08;;;;;;;23.95;100.00;100827.94;6153039;23;20423;-83
2023/07/06 06:12:18;;;;;;;26.80;24.90;;;;;;;24.06;100.00;100825.91;6152926;23;20014;-84
2023/07/06 06:14:48;;;;;;;27.60;25.60;;;;;;;23.90;100.00;100821.78;6153212;23;20021;-83
2023/07/06 06:17:19;;;;;;;26.55;24.52;;;;;;;23.91;100.00;100820.69;6153136;23;20121;-83
2023/07/06 06:19:48;;;;;;;25.90;24.10;;;;;;;24.56;100.00;100814.56;6152573;23;20013;-83
2023/07/06 06:22:18;;;;;;;25.50;23.92;;;;;;;24.39;100.00;100817.81;6153061;23;20539;-83
2023/07/06 06:24:46;;;;;;;26.00;24.25;;;;;;;24.86;100.00;100829.53;6152408;23;20446;-83
2023/07/06 06:27:14;;;;;;;25.67;23.67;;;;;;;24.79;100.00;100824.47;6152655;23;20017;-83
2023/07/06 06:29:49;;;;;;;26.25;24.27;;;;;;;24.85;100.00;100826.00;6152927;23;20026;-82
2023/07/06 06:32:22;;;;;;;27.65;25.08;;;;;;;24.74;100.00;100829.19;6150720;23;20479;-83
2023/07/06 06:34:50;;;;;;;;;;;;;;;24.58;100.00;100821.31;6152699;23;20028;-83
2023/07/06 06:37:21;;;;;;;25.70;23.90;;;;;;;24.63;100.00;100813.09;6151906;23;19916;-83
2023/07/06 06:39:48;;;;;;;25.00;22.90;;;;;;;24.61;100.00;100818.00;6151883;23;20032;-83
2023/07/06 06:42:15;;;;;;;26.60;24.45;;;;;;;25.02;100.00;100817.25;6152704;23;20130;-84
2023/07/06 06:44:43;;;;;;;25.73;23.90;;;;;;;24.88;100.00;100811.81;6152637;23;20033;-83
2023/07/06 06:47:10;;;;;;;25.58;23.77;;;;;;;25.14;100.00;100811.38;6152483;23;20345;-83
2023/07/06 06:49:37;;;;;;;24.45;22.85;;;;;;;25.36;100.00;100811.47;6152266;23;20214;-84
2023/07/06 06:52:05;;;;;;;25.08;23.33;;;;;;;25.40;100.00;100817.13;6152318;23;20363;-83
2023/07/06 06:54:33;;;;;;;25.70;23.65;;;;;;;25.61;100.00;100803.09;6152345;23;20021;-84
2023/07/06 06:57:01;;;;;;;25.33;23.33;;;;;;;25.35;100.00;100804.41;6151574;23;20422;-84
2023/07/06 06:59:28;;;;;;;26.10;24.33;;;;;;;25.46;100.00;100813.19;6152010;23;20467;-83
2023/07/06 07:02:01;;;;;;;26.08;23.88;;;;;;;25.43;100.00;100807.56;6151995;23;20025;-83
2023/07/06 07:04:29;;;;;;;25.35;23.35;;;;;;;25.64;100.00;100806.00;6151579;23;20017;-83
2023/07/06 07:06:57;;;;;;;24.92;23.02;;;;;;;25.84;100.00;100795.81;6151468;23;20056;-83
2023/07/06 07:09:27;;;;;;;25.73;23.73;;;;;;;25.44;100.00;100820.03;6152474;23;20116;-83
2023/07/06 07:11:54;;;;;;;24.92;23.02;;;;;;;26.03;100.00;100804.63;6152349;23;20025;-84
2023/07/06 07:14:21;;;;;;;24.48;22.42;;;;;;;25.74;100.00;100803.06;6152770;23;20096;-83
2023/07/06 07:16:50;;;;;;;23.88;22.17;;;;;;;25.55;100.00;100810.56;6152380;23;20371;-83
2023/07/06 07:19:29;;;;;;;24.85;23.00;;;;;;;25.81;100.00;100808.09;6151860;23;20018;-83
2023/07/06 07:22:00;;;;;;;25.02;23.15;;;;;;;25.77;100.00;100812.53;6152028;23;20353;-83
2023/07/06 07:24:30;;;;;;;26.60;24.42;;;;;;;26.30;100.00;100805.66;6152355;23;20029;-83
2023/07/06 07:26:59;;;;;;;26.83;24.60;;;;;;;26.22;100.00;100816.16;6152284;23;20017;-84
2023/07/06 07:29:26;;;;;;;25.58;23.52;;;;;;;26.37;100.00;100816.91;6151800;23;20033;-84
2023/07/06 07:31:53;;;;;;;26.58;24.38;;;;;;;26.26;100.00;100800.00;6151219;23;20478;-83
2023/07/06 07:34:22;;;;;;;24.70;22.90;;;;;;;26.80;100.00;100809.00;6151518;23;20543;-82
2023/07/06 07:36:50;;;;;;;26.73;24.73;;;;;;;26.32;100.00;100806.91;6150794;23;20018;-83
2023/07/06 07:39:17;;;;;;;28.73;25.85;;;;;;;25.75;100.00;100807.41;6151663;23;20057;-83
2023/07/06 07:41:46;;;;;;;29.13;25.00;;;;;;;26.58;100.00;100800.88;6152034;23;20533;-83
2023/07/06 07:44:19;;;;;;;25.02;23.23;;;;;;;27.14;100.00;100799.38;6151975;23;20090;-83
2023/07/06 07:46:46;;;;;;;27.48;25.63;;;;;;;27.25;100.00;100799.94;6151886;23;20371;-84
2023/07/06 07:49:19;;;;;;;29.00;26.77;;;;;;;27.11;100.00;100798.09;6152108;23;20388;-83
2023/07/06 07:51:46;;;;;;;26.83;24.45;;;;;;;27.28;100.00;100802.03;6151629;23;20036;-85
2023/07/06 07:54:13;;;;;;;26.92;24.88;;;;;;;26.49;100.00;100804.34;6152318;23;20025;-83
2023/07/06 07:56:42;;;;;;;23.98;22.08;;;;;;;27.37;100.00;100800.91;6151474;23;20021;-83
2023/07/06 07:59:11;;;;;;;28.05;25.60;;;;;;;27.88;100.00;100806.81;6152005;23;20017;-83
2023/07/06 08:01:38;;;;;;;27.05;24.70;;;;;;;27.28;100.00;100802.81;6152184;23;20028;-83
2023/07/06 08:04:05;;;;;;;26.95;24.85;;;;;;;27.86;100.00;100806.31;6151944;23;20029;-83
2023/07/06 08:06:33;;;;;;;24.67;22.50;;;;;;;27.78;100.00;100799.75;6152304;23;20022;-83
2023/07/06 08:09:03;;;;;;;26.30;24.30;;;;;;;27.35;100.00;100808.63;6152221;23;20022;-83
2023/07/06 08:11:31;;;;;;;26.30;23.83;;;;;;;27.03;100.00;100804.31;6151754;23;20033;-83
2023/07/06 08:13:59;;;;;;;27.48;25.30;;;;;;;27.54;100.00;100799.38;6152256;23;20025;-83
2023/07/06 08:16:28;;;;;;;23.50;21.70;;;;;;;27.88;100.00;100787.72;6152246;23;20023;-82
2023/07/06 08:18:55;;;;;;;25.25;22.95;;;;;;;28.16;100.00;100782.72;6152014;23;20080;-83
2023/07/06 08:21:23;;;;;;;26.65;24.27;;;;;;;27.90;100.00;100790.94;6151617;23;20105;-83
2023/07/06 08:23:53;;;;;;;27.05;24.50;;;;;;;28.51;100.00;100782.69;6151398;23;20017;-85
2023/07/06 08:26:20;;;;;;;25.35;23.45;;;;;;;28.13;100.00;100793.47;6151973;23;20029;-84
2023/07/06 08:28:47;;;;;;;24.40;22.52;;;;;;;27.90;100.00;100790.94;6152129;23;20502;-82
2023/07/06 08:31:17;;;;;;;24.55;22.65;;;;;;;28.35;100.00;100787.81;6153623;23;20029;-83
2023/07/06 08:33:47;;;;;;;23.42;21.52;;;;;;;28.70;100.00;100780.38;6148964;23;20021;-83
2023/07/06 08:36:16;;;;;;;24.02;22.00;;;;;;;28.45;100.00;100784.81;6151642;23;20076;-84
2023/07/06 08:38:43;;;;;;;23.58;21.77;;;;;;;28.42;100.00;100774.53;6151314;23;20083;-83
2023/07/06 08:41:15;;;;;;;25.60;23.35;;;;;;;29.00;100.00;100791.38;6151302;23;20032;-83
2023/07/06 08:43:43;;;;;;;26.27;23.98;;;;;;;29.07;100.00;100783.47;6151564;23;20056;-83
2023/07/06 08:46:12;;;;;;;25.38;23.38;;;;;;;29.30;100.00;100788.69;6151671;23;20044;-83
2023/07/06 08:48:41;;;;;;;23.55;21.92;;;;;;;28.66;100.00;100773.19;6151001;23;20022;-83
2023/07/06 08:51:17;;;;;;;27.15;25.50;;;;;;;28.71;100.00;100783.91;6151511;23;20048;-82
2023/07/06 08:53:51;;;;;;;27.50;25.50;;;;;;;28.45;100.00;100773.88;6151719;23;20017;-83
2023/07/06 08:56:21;;;;;;;27.83;25.83;;;;;;;29.08;100.00;100779.63;6150120;23;20025;-83
2023/07/06 08:58:49;;;;;;;30.25;28.25;;;;;;;29.21;100.00;100784.06;6150065;23;20070;-83
2023/07/06 09:01:21;;;;;;;28.48;26.48;;;;;;;29.58;100.00;100784.31;6151038;23;20096;-85
2023/07/06 09:03:48;;;;;;;;;;;;;;;28.80;100.00;100781.16;6152107;23;20106;-84
2023/07/06 09:06:20;;;;;;;28.05;26.25;;;;;;;29.14;100.00;100770.09;6152392;23;20295;-84
2023/07/06 09:08:50;;;;;;;28.40;26.10;;;;;;;29.45;100.00;100767.00;6151008;23;20014;-84
2023/07/06 09:11:17;;;;;;;25.25;23.15;;;;;;;29.54;100.00;100775.16;6152640;23;20431;-85
2023/07/06 09:13:47;;;;;;;27.83;25.35;;;;;;;30.16;100.00;100773.53;6152076;23;20043;-86
2023/07/06 09:16:20;;;;;;;27.20;24.85;;;;;;;30.17;100.00;100780.66;6151930;23;20480;-85
2023/07/06 09:18:47;;;;;;;31.23;25.77;;;;;;;30.24;100.00;100774.66;6151526;23;20017;-85
2023/07/06 09:21:17;;;;;;;28.38;26.27;;;;;;;30.40;100.00;100778.34;6151323;23;20029;-84
2023/07/06 09:23:47;;;;;;;31.63;29.27;;;;;;;29.95;100.00;100779.06;6152572;23;20021;-84
2023/07/06 09:26:24;;;;;;;32.08;30.08;;;;;;;29.28;100.00;100780.78;6151419;23;20096;-83
2023/07/06 09:29:11;;;;;;;31.67;28.73;;;;;;;30.08;100.00;100772.50;6151061;23;20020;-85
2023/07/06 09:31:38;;;;;;;30.20;28.23;;;;;;;30.32;100.00;100769.09;6153225;23;20022;-86
2023/07/06 09:34:10;;;;;;;28.85;27.02;;;;;;;30.36;100.00;100758.25;6153366;23;20088;-85
2023/07/06 09:36:37;;;;;;;28.27;26.20;;;;;;;31.03;100.00;100758.91;6153716;23;20423;-85
2023/07/06 09:39:09;;;;;;;27.45;25.65;;;;;;;30.93;100.00;100751.94;6153799;23;20475;-85
2023/07/06 09:41:45;;;;;;;27.20;25.20;;;;;;;30.89;100.00;100753.75;6153576;23;20031;-83
2023/07/06 09:44:17;;;;;;;28.02;25.70;;;;;;;30.00;100.00;100748.75;6153682;23;20053;-84
2023/07/06 09:46:44;;;;;;;;;;;;;;;30.00;100.00;100754.22;6154101;23;20097;-83
2023/07/06 09:49:19;;;;;;;27.40;25.35;;;;;;;30.69;100.00;100743.69;6153542;23;19975;-84
2023/07/06 09:51:54;;;;;;;29.35;26.92;;;;;;;30.62;100.00;100741.50;6153562;23;20028;-85
2023/07/06 09:54:32;;;;;;;30.27;27.98;;;;;;;30.78;100.00;100736.19;6153899;23;20037;-84
2023/07/06 09:56:58;;;;;;;26.90;25.10;;;;;;;31.50;100.00;100736.47;6153662;23;20472;-85
2023/07/06 09:59:27;;;;;;;26.63;24.65;;;;;;;30.55;100.00;100738.53;6153524;23;20096;-83
2023/07/06 10:02:06;;;;;;;30.73;28.35;;;;;;;31.38;100.00;100737.31;6153547;23;20423;-83
2023/07/06 10:04:51;;;;;;;31.77;29.73;;;;;;;31.82;100.00;100722.88;6153048;23;20024;-84
2023/07/06 10:07:27;;;;;;;35.55;32.95;;;;;;;31.96;100.00;100726.03;6153039;23;20013;-83
2023/07/06 10:10:14;;;;;;;30.17;28.17;;;;;;;31.85;100.00;100724.91;6153319;23;20363;-84
2023/07/06 10:12:48;;;;;;;31.50;29.38;;;;;;;31.39;100.00;100725.19;6152928;23;20025;-83
2023/07/06 10:15:25;;;;;;;30.02;27.05;;;;;;;31.39;100.00;100722.44;6153293;23;20088;-83
2023/07/06 10:18:00;;;;;;;28.83;27.17;;;;;;;31.34;100.00;100708.13;6153368;23;20036;-84
2023/07/06 10:20:35;;;;;;;42.47;40.17;;;;;;;31.84;100.00;100715.88;6152918;23;20022;-84
2023/07/06 10:23:22;;;;;;;41.17;38.65;;;;;;;31.52;100.00;100714.16;6153020;23;20020;-83
2023/07/06 10:26:01;;;;;;;50.75;47.65;;;;;;;32.77;100.00;100712.84;6153626;23;20519;-83
2023/07/06 10:28:33;;;;;;;43.15;40.65;;;;;;;32.72;100.00;100704.06;6153411;23;20018;-84
2023/07/06 10:31:03;;;;;;;45.05;42.55;;;;;;;32.14;100.00;100705.34;6153310;23;20069;-84
2023/07/06 10:33:37;;;;;;;50.78;48.10;;;;;;;32.33;100.00;100701.91;6153139;23;20013;-83
2023/07/06 10:36:05;;;;;;;47.17;44.53;;;;;;;32.96;88.36;100708.53;6152940;23;20021;-83
2023/07/06 10:38:32;;;;;;;43.45;40.88;;;;;;;32.19;93.65;100696.03;6152964;23;20382;-84
2023/07/06 10:41:22;;;;;;;39.80;37.50;;;;;;;33.08;89.02;100689.19;6153244;23;20210;-84
2023/07/06 10:43:55;;;;;;;47.78;45.17;;;;;;;33.48;85.12;100690.81;6152386;23;20021;-85
2023/07/06 10:46:35;;;;;;;47.42;44.85;;;;;;;32.48;99.98;100694.84;6152816;23;20375;-85
2023/07/06 10:49:16;;;;;;;30.92;28.58;;;;;;;33.12;89.87;100692.03;6152800;23;20029;-83
2023/07/06 10:51:50;;;;;;;31.23;29.27;;;;;;;33.26;90.21;100689.59;6152491;23;20018;-83
2023/07/06 10:54:19;;;;;;;41.53;39.03;;;;;;;33.29;86.73;100681.41;6152683;23;20468;-83
2023/07/06 10:57:00;;;;;;;47.97;45.30;;;;;;;32.32;84.66;100685.78;6152403;23;20359;-83
2023/07/06 10:59:38;;;;;;;40.83;38.30;;;;;;;31.22;100.00;100682.31;6152732;23;20068;-84
2023/07/06 11:02:25;;;;;;;37.55;35.15;;;;;;;32.82;90.32;100679.53;6152503;23;20021;-83
2023/07/06 11:05:08;;;;;;;40.45;38.00;;;;;;;32.56;86.57;100677.38;6152959;23;20105;-84
2023/07/06 11:07:50;;;;;;;36.85;34.65;;;;;;;32.65;78.81;100668.94;6152695;23;20053;-84
2023/07/06 11:10:42;;;;;;;39.88;37.33;;;;;;;32.69;87.32;100664.31;6152706;23;20533;-84
2023/07/06 11:13:25;;;;;;;36.80;34.60;;;;;;;32.02;82.42;100672.44;6152731;23;20463;-85
2023/07/06 11:16:04;;;;;;;40.55;38.15;;;;;;;33.26;79.11;100671.13;6153548;23;20076;-85
2023/07/06 11:18:38;;;;;;;40.05;37.65;;;;;;;32.13;84.12;100664.47;6152670;23;20072;-86